Terminal Aerodrome Forecast
Issued by NWS

Home | Current Version | Previous Version | Graphics & Text | Print | Product List | Glossary On
Versions: 1 2 3 4 5 6 7 8 9 10 11 12 13 14 15 16 17 18 19 20 21 22 23 24
000
FTUS43 KICT 210753 AAB
TAFCNU
TAF AMD
KCNU 210753Z 2108/2206 34005KT P6SM BKN015
      TEMPO 2108/2110 SCT015 BKN045
     FM211000 01004KT 4SM BR SCT015 BKN025
     FM211700 04007KT P6SM FEW025 SCT050=

USA.gov is the U.S. government's official web portal to all federal, state and local government web resources and services.